Time;durP1;ratioP1;P1;durP2;ratioP2;P2;SDS_P1;SDS_P2;PMS_P1;PMS_P2;Temp;Humidity;BMP_temperature;BMP_pressure;BME280_temperature;BME280_humidity;BME280_pressure;Samples;Min_cycle;Max_cycle;Signal;HPM_P1;HPM_P2
2021/03/04 00:02:48;;;;;;;107.68;40.50;;;;;;;3.92;96.02;102097.31;6298873;28;20440;-72
2021/03/04 00:05:48;;;;;;;102.53;40.20;;;;;;;4.01;95.42;102097.28;6298064;28;20135;-72
2021/03/04 00:08:49;;;;;;;106.32;40.55;;;;;;;3.77;96.74;102098.25;6298046;28;20493;-72
2021/03/04 00:11:51;;;;;;;104.40;38.95;;;;;;;3.79;96.94;102086.09;6297733;28;20045;-72
2021/03/04 00:14:52;;;;;;;101.32;40.15;;;;;;;3.88;96.47;102092.16;6297845;28;20052;-71
2021/03/04 00:17:53;;;;;;;110.72;43.00;;;;;;;3.63;97.67;102089.59;6297622;28;20516;-72
2021/03/04 00:20:54;;;;;;;109.72;43.10;;;;;;;3.73;98.09;102091.34;6297499;28;20048;-72
2021/03/04 00:23:54;;;;;;;107.50;41.90;;;;;;;3.93;97.19;102090.38;6297693;28;20558;-72
2021/03/04 00:26:56;;;;;;;111.55;41.83;;;;;;;3.75;97.36;102083.50;6297330;28;20049;-72
2021/03/04 00:29:57;;;;;;;108.60;39.85;;;;;;;3.79;97.69;102080.91;6297626;28;20519;-72
2021/03/04 00:32:58;;;;;;;116.18;43.15;;;;;;;3.62;97.87;102080.09;6299419;28;20055;-72
2021/03/04 00:35:59;;;;;;;111.80;41.88;;;;;;;3.71;98.73;102087.00;6297465;28;20503;-72
2021/03/04 00:39:00;;;;;;;108.47;42.47;;;;;;;3.86;97.46;102083.47;6297206;28;20545;-71
2021/03/04 00:42:02;;;;;;;111.80;40.95;;;;;;;3.86;97.17;102096.47;6297097;28;20070;-72
2021/03/04 00:45:06;;;;;;;115.05;42.85;;;;;;;3.79;98.39;102085.25;6297180;28;20546;-72
2021/03/04 00:48:09;;;;;;;116.60;44.65;;;;;;;3.79;97.82;102075.69;6296854;28;20082;-71
2021/03/04 00:51:10;;;;;;;107.32;42.85;;;;;;;3.69;98.14;102079.22;6296934;28;20045;-71
2021/03/04 00:54:11;;;;;;;108.55;41.00;;;;;;;3.63;98.34;102075.75;6297007;28;20056;-72
2021/03/04 00:57:12;;;;;;;98.90;38.95;;;;;;;3.58;98.05;102072.31;6296894;28;20052;-72
2021/03/04 01:00:15;;;;;;;95.90;38.50;;;;;;;3.55;97.11;102074.06;6296969;28;20056;-72
2021/03/04 01:03:16;;;;;;;93.63;36.70;;;;;;;3.52;96.77;102083.59;6296440;28;20052;-71
2021/03/04 01:06:17;;;;;;;96.68;38.33;;;;;;;3.40;96.88;102075.81;6296576;28;20440;-71
2021/03/04 01:09:18;;;;;;;93.10;35.65;;;;;;;3.53;96.33;102070.59;6296820;28;20080;-71
2021/03/04 01:12:20;;;;;;;91.82;35.30;;;;;;;3.39;96.46;102077.56;6296488;28;20053;-71
2021/03/04 01:15:22;;;;;;;89.25;35.53;;;;;;;3.21;96.42;102073.25;6296749;28;20071;-71
2021/03/04 01:18:22;;;;;;;83.57;34.55;;;;;;;3.34;96.12;102075.84;6296546;28;20086;-71
2021/03/04 01:21:23;;;;;;;106.47;37.25;;;;;;;3.26;96.61;102068.06;6296159;28;20048;-72
2021/03/04 01:24:24;;;;;;;85.35;34.95;;;;;;;3.20;96.94;102060.28;6296566;28;20480;-72
2021/03/04 01:27:26;;;;;;;92.03;35.30;;;;;;;3.30;95.74;102055.06;6296139;28;20486;-71
2021/03/04 01:30:29;;;;;;;96.38;37.70;;;;;;;3.12;97.48;102062.00;6296456;28;20063;-72
2021/03/04 01:33:30;;;;;;;97.63;36.28;;;;;;;3.11;97.74;102052.50;6297074;28;20404;-72
2021/03/04 01:36:31;;;;;;;101.60;38.35;;;;;;;3.09;97.63;102055.13;6296205;28;20055;-71
2021/03/04 01:39:32;;;;;;;103.60;39.42;;;;;;;3.08;98.26;102063.75;6296296;28;20053;-71
2021/03/04 01:42:34;;;;;;;116.03;38.05;;;;;;;3.21;97.83;102060.25;6295882;28;20501;-71
2021/03/04 01:45:34;;;;;;;109.75;36.60;;;;;;;3.18;97.27;102054.19;6296293;28;20041;-72
2021/03/04 01:48:36;;;;;;;94.50;35.35;;;;;;;3.07;97.79;102050.78;6295915;28;20107;-71
2021/03/04 01:51:38;;;;;;;108.97;38.38;;;;;;;3.01;98.22;102044.72;6296103;28;20052;-71
2021/03/04 01:54:39;;;;;;;100.03;36.00;;;;;;;3.07;97.86;102041.25;6295930;28;20053;-72
2021/03/04 01:57:43;;;;;;;115.55;39.90;;;;;;;2.98;98.54;102038.66;6296020;28;20056;-72
2021/03/04 02:04:40;;;;;;;112.28;38.72;;;;;;;3.03;98.03;102029.13;6295937;28;20488;-72
2021/03/04 02:07:48;;;;;;;107.32;36.50;;;;;;;2.96;98.12;102027.44;6295905;28;20048;-72
2021/03/04 02:10:52;;;;;;;112.63;39.35;;;;;;;2.99;99.49;102025.66;6295519;28;20505;-72
2021/03/04 02:13:59;;;;;;;105.97;36.72;;;;;;;3.02;98.88;102020.47;6295753;28;20497;-72
2021/03/04 02:17:02;;;;;;;115.32;39.28;;;;;;;3.23;99.36;102016.13;6299571;28;20456;-72
2021/03/04 02:20:07;;;;;;;117.40;38.78;;;;;;;3.07;99.15;102022.22;6300718;28;20409;-72
2021/03/04 02:23:46;;;;;;;122.10;38.75;;;;;;;2.98;100.00;102007.50;6300343;28;20062;-72
2021/03/04 02:27:09;;;;;;;125.07;39.08;;;;;;;3.01;100.00;102008.38;6294399;28;20064;-72
2021/03/04 02:30:14;;;;;;;116.75;35.92;;;;;;;3.11;99.98;102000.56;6300411;28;20048;-71
2021/03/04 02:33:17;;;;;;;115.47;36.33;;;;;;;2.86;100.00;101998.03;6301217;28;20060;-71
2021/03/04 02:36:20;;;;;;;130.27;39.53;;;;;;;2.82;100.00;101988.50;6299984;28;20063;-72
2021/03/04 02:39:23;;;;;;;121.22;39.25;;;;;;;2.90;100.00;101986.75;6300252;28;20055;-71
2021/03/04 02:42:27;;;;;;;111.63;36.17;;;;;;;2.87;100.00;101991.97;6299854;28;20051;-71
2021/03/04 02:45:28;;;;;;;125.13;37.72;;;;;;;2.79;100.00;101988.50;6300050;28;20045;-72
2021/03/04 02:48:31;;;;;;;116.47;36.80;;;;;;;2.95;100.00;101994.53;6300009;28;20056;-71
2021/03/04 02:51:34;;;;;;;115.55;34.58;;;;;;;3.08;100.00;101996.22;6299646;28;20547;-71
2021/03/04 02:54:37;;;;;;;114.72;35.30;;;;;;;2.84;100.00;101996.28;6299646;28;20048;-71
2021/03/04 02:57:42;;;;;;;117.30;35.70;;;;;;;3.00;100.00;101992.81;6299905;28;20052;-71
2021/03/04 03:00:43;;;;;;;101.47;32.60;;;;;;;2.89;100.00;101989.34;6299662;28;20045;-71
2021/03/04 03:03:47;;;;;;;104.18;31.77;;;;;;;2.63;100.00;101979.84;6300642;28;20048;-71
2021/03/04 03:06:49;;;;;;;116.72;33.60;;;;;;;2.47;100.00;101989.38;6299009;28;20052;-71
2021/03/04 03:09:51;;;;;;;95.68;32.10;;;;;;;2.72;100.00;101971.19;6299367;28;20055;-71
2021/03/04 03:12:56;;;;;;;92.05;30.95;;;;;;;2.53;100.00;101970.34;6299276;28;20059;-72
2021/03/04 03:15:57;;;;;;;103.05;31.95;;;;;;;2.58;100.00;101975.53;6299511;28;20048;-71
2021/03/04 03:18:59;;;;;;;98.95;29.98;;;;;;;2.58;100.00;101968.63;6299283;28;20055;-71
2021/03/04 03:22:00;;;;;;;103.70;31.50;;;;;;;2.49;100.00;101961.69;6298927;28;20059;-71
2021/03/04 03:25:01;;;;;;;95.05;30.63;;;;;;;2.57;100.00;101959.09;6299100;28;20048;-71
2021/03/04 03:28:04;;;;;;;112.05;32.28;;;;;;;2.53;100.00;101955.63;6298868;28;20056;-71
2021/03/04 03:31:04;;;;;;;94.80;29.67;;;;;;;2.70;100.00;101958.22;6299103;28;20044;-71
2021/03/04 03:34:06;;;;;;;85.90;29.58;;;;;;;2.58;100.00;101959.97;6312822;28;20075;-72
2021/03/04 03:37:07;;;;;;;82.13;28.17;;;;;;;2.52;100.00;101953.06;6323342;28;20048;-71
2021/03/04 03:40:11;;;;;;;79.15;26.85;;;;;;;2.63;100.00;101955.63;6309023;28;20052;-71
2021/03/04 03:43:15;;;;;;;67.30;25.15;;;;;;;2.35;100.00;101954.78;6298446;28;20044;-71
2021/03/04 03:46:17;;;;;;;70.15;25.65;;;;;;;2.34;100.00;101956.53;6298495;28;20056;-71
2021/03/04 03:49:19;;;;;;;74.43;24.63;;;;;;;2.29;100.00;101943.56;6298491;28;20044;-71
2021/03/04 03:52:20;;;;;;;69.82;24.10;;;;;;;2.15;100.00;101950.47;6307285;28;20178;-71
2021/03/04 03:55:22;;;;;;;60.92;22.08;;;;;;;2.29;100.00;101938.38;6323346;28;20103;-71
2021/03/04 03:58:26;;;;;;;59.65;20.52;;;;;;;2.16;100.00;101956.50;6323450;28;20052;-71
2021/03/04 04:01:28;;;;;;;65.57;22.73;;;;;;;2.21;100.00;101947.00;6323022;28;20048;-71
2021/03/04 04:04:30;;;;;;;69.43;20.98;;;;;;;2.25;100.00;101934.03;6322789;28;20062;-71
2021/03/04 04:07:31;;;;;;;71.00;24.00;;;;;;;2.26;100.00;101930.56;6323078;28;20052;-71
2021/03/04 04:10:35;;;;;;;64.43;23.05;;;;;;;2.24;100.00;101934.06;6323049;28;20090;-71
2021/03/04 04:13:37;;;;;;;77.15;23.45;;;;;;;2.27;100.00;101934.03;6323033;28;20048;-71
2021/03/04 04:16:38;;;;;;;67.50;23.25;;;;;;;2.33;100.00;101928.84;6322879;28;20052;-71
2021/03/04 04:19:39;;;;;;;61.65;22.05;;;;;;;2.39;100.00;101934.03;6323065;28;20052;-71
2021/03/04 04:22:41;;;;;;;65.65;22.15;;;;;;;2.44;100.00;101921.91;6322682;28;20420;-71
2021/03/04 04:25:48;;;;;;;60.67;22.33;;;;;;;2.26;100.00;101924.53;6322838;28;20051;-71
2021/03/04 04:28:50;;;;;;;58.72;20.88;;;;;;;2.24;100.00;101918.50;6322737;28;20048;-71
2021/03/04 04:31:50;;;;;;;62.22;22.10;;;;;;;2.11;100.00;101914.16;6320821;28;20066;-71
2021/03/04 04:34:51;;;;;;;69.43;22.40;;;;;;;2.15;100.00;101910.72;6322742;28;20484;-71
2021/03/04 04:37:52;;;;;;;58.55;20.35;;;;;;;2.34;100.00;101909.84;6321941;28;20048;-71
2021/03/04 04:40:53;;;;;;;60.67;19.73;;;;;;;2.22;100.00;101909.81;6322385;28;20052;-71
2021/03/04 04:43:55;;;;;;;67.70;21.50;;;;;;;2.12;100.00;101908.97;6322544;28;20489;-71
2021/03/04 04:46:56;;;;;;;59.38;21.10;;;;;;;2.20;100.00;101901.19;6322340;28;20389;-71
2021/03/04 04:49:56;;;;;;;68.55;23.55;;;;;;;2.25;100.00;101904.66;6322090;28;20059;-71
2021/03/04 04:52:57;;;;;;;61.10;22.08;;;;;;;2.24;100.00;101900.34;6322194;28;20055;-71
2021/03/04 04:55:58;;;;;;;53.35;20.05;;;;;;;2.20;100.00;101902.06;6322163;28;20492;-71
2021/03/04 04:59:00;;;;;;;60.60;19.90;;;;;;;2.10;100.00;101896.88;6322043;28;20063;-71
2021/03/04 05:02:02;;;;;;;60.08;20.08;;;;;;;2.28;100.00;101892.56;6320033;28;20051;-71
2021/03/04 05:05:04;;;;;;;55.80;19.08;;;;;;;2.29;100.00;101894.28;6322076;28;20048;-71
2021/03/04 05:08:05;;;;;;;57.13;20.33;;;;;;;2.16;100.00;101895.13;6321789;28;20047;-71
2021/03/04 05:11:06;;;;;;;57.08;19.80;;;;;;;2.06;100.00;101887.38;6321796;28;20048;-71
2021/03/04 05:14:08;;;;;;;66.95;22.25;;;;;;;2.10;100.00;101883.91;6321788;28;20075;-72
2021/03/04 05:17:09;;;;;;;61.53;19.17;;;;;;;2.07;100.00;101877.00;6321766;28;20527;-71
2021/03/04 05:20:11;;;;;;;64.20;21.38;;;;;;;2.16;100.00;101868.34;6321704;28;20056;-71
2021/03/04 05:23:11;;;;;;;53.42;19.20;;;;;;;2.12;100.00;101871.81;6321264;28;20051;-71
2021/03/04 05:26:12;;;;;;;59.90;20.98;;;;;;;2.08;100.00;101867.47;6321397;28;20052;-71
2021/03/04 05:29:14;;;;;;;56.67;19.15;;;;;;;2.07;100.00;101870.94;6321356;28;20059;-71
2021/03/04 05:32:16;;;;;;;57.15;20.52;;;;;;;2.09;100.00;101867.50;6319665;28;20056;-71
2021/03/04 05:35:17;;;;;;;53.45;19.38;;;;;;;2.23;100.00;101862.31;6321499;28;20096;-71
2021/03/04 05:38:18;;;;;;;55.47;19.42;;;;;;;2.26;100.00;101857.09;6321202;28;20416;-71
2021/03/04 05:41:22;;;;;;;49.03;17.42;;;;;;;2.23;100.00;101867.50;6321317;28;20401;-71
2021/03/04 05:44:24;;;;;;;41.60;16.27;;;;;;;2.22;100.00;101874.38;6321432;28;20052;-71
2021/03/04 05:47:26;;;;;;;50.83;18.20;;;;;;;2.20;100.00;101872.69;6321110;28;20097;-71
2021/03/04 05:50:28;;;;;;;48.70;18.05;;;;;;;2.08;100.00;101865.75;6322813;28;20056;-71
2021/03/04 05:53:32;;;;;;;45.28;16.75;;;;;;;2.21;100.00;101867.47;6326312;28;20043;-71
2021/03/04 05:56:35;;;;;;;48.67;17.77;;;;;;;2.12;100.00;101859.69;6326248;28;20055;-71
2021/03/04 05:59:37;;;;;;;51.88;18.75;;;;;;;2.16;100.00;101853.66;6326387;28;20078;-71
2021/03/04 06:02:41;;;;;;;45.65;18.63;;;;;;;2.14;100.00;101851.94;6324274;28;20052;-71
2021/03/04 06:05:42;;;;;;;53.03;17.92;;;;;;;2.19;100.00;101845.88;6326390;28;20044;-71
2021/03/04 06:08:42;;;;;;;54.08;18.55;;;;;;;2.13;100.00;101832.03;6326105;28;20102;-71
2021/03/04 06:11:43;;;;;;;55.47;19.58;;;;;;;2.24;100.00;101843.28;6325739;28;20079;-71
2021/03/04 06:14:46;;;;;;;46.75;17.83;;;;;;;2.37;100.00;101844.13;6326056;28;20139;-71
2021/03/04 06:17:53;;;;;;;57.55;18.65;;;;;;;2.23;100.00;101846.75;6325684;28;20048;-71
2021/03/04 06:20:53;;;;;;;49.53;17.02;;;;;;;2.20;100.00;101832.03;6325643;28;20052;-72
2021/03/04 06:23:56;;;;;;;54.83;18.60;;;;;;;2.18;100.00;101843.28;6325957;28;20183;-72
2021/03/04 06:26:57;;;;;;;47.53;18.40;;;;;;;2.25;100.00;101839.81;6325581;28;20051;-72
2021/03/04 06:30:00;;;;;;;41.13;16.05;;;;;;;2.34;100.00;101836.34;6323475;28;20048;-72
2021/03/04 06:33:02;;;;;;;48.22;17.70;;;;;;;2.28;100.00;101838.09;6325161;28;20048;-72
2021/03/04 06:36:14;;;;;;;42.33;15.80;;;;;;;2.43;100.00;101846.69;6325410;28;20048;-72
2021/03/04 06:39:15;;;;;;;44.08;17.15;;;;;;;2.27;100.00;101844.16;6325602;28;20523;-70
2021/03/04 06:42:17;;;;;;;49.70;17.77;;;;;;;2.30;100.00;101845.84;6325207;28;20056;-70
2021/03/04 06:45:27;;;;;;;42.90;16.83;;;;;;;2.28;100.00;101843.28;6325433;28;20500;-71
2021/03/04 06:48:28;;;;;;;45.30;17.38;;;;;;;2.41;100.00;101844.13;6325039;28;20496;-70
2021/03/04 06:51:32;;;;;;;45.00;16.27;;;;;;;2.40;100.00;101850.16;6324959;28;20105;-70
2021/03/04 06:54:33;;;;;;;40.78;15.20;;;;;;;2.34;100.00;101844.13;6324988;28;20105;-70
2021/03/04 06:57:34;;;;;;;44.55;16.70;;;;;;;2.28;100.00;101845.88;6325042;28;20501;-70
2021/03/04 07:00:36;;;;;;;41.70;16.23;;;;;;;2.20;100.00;101836.38;6322562;28;20523;-70
2021/03/04 07:03:38;;;;;;;46.83;17.58;;;;;;;2.20;100.00;101832.03;6324797;28;20048;-70
2021/03/04 07:06:40;;;;;;;49.78;16.35;;;;;;;2.28;100.00;101838.09;6324415;28;20048;-70
2021/03/04 07:09:41;;;;;;;48.20;16.83;;;;;;;2.20;100.00;101845.00;6324837;28;20048;-71
2021/03/04 07:12:44;;;;;;;38.45;15.57;;;;;;;2.46;100.00;101839.78;6324600;28;20051;-71
2021/03/04 07:15:46;;;;;;;52.50;17.40;;;;;;;2.28;100.00;101837.22;6324404;28;20040;-70
2021/03/04 07:18:49;;;;;;;49.03;17.15;;;;;;;2.31;100.00;101833.75;6324602;28;20051;-69
2021/03/04 07:21:53;;;;;;;43.42;16.67;;;;;;;2.42;100.00;101839.78;6324054;28;20044;-69
2021/03/04 07:24:54;;;;;;;51.25;18.80;;;;;;;2.42;100.00;101838.06;6322792;28;20131;-71
2021/03/04 07:27:55;;;;;;;42.35;15.38;;;;;;;2.41;100.00;101851.03;6323956;28;20059;-70
2021/03/04 07:30:57;;;;;;;41.72;15.48;;;;;;;2.45;100.00;101855.34;6324224;28;20044;-69
2021/03/04 07:33:59;;;;;;;40.90;14.50;;;;;;;2.29;100.00;101857.09;6324100;28;20097;-70
2021/03/04 07:37:01;;;;;;;31.67;12.70;;;;;;;2.27;100.00;101858.81;6323758;28;20397;-70
2021/03/04 07:40:02;;;;;;;33.25;13.13;;;;;;;2.20;100.00;101863.16;6324054;28;20058;-70
2021/03/04 07:43:03;;;;;;;33.88;11.48;;;;;;;2.40;100.00;101859.66;6323795;28;20524;-70
2021/03/04 07:46:05;;;;;;;39.90;12.95;;;;;;;2.42;100.00;101863.16;6323817;28;20048;-71
2021/03/04 07:49:08;;;;;;;33.83;12.18;;;;;;;2.23;99.91;101857.97;6323812;28;20044;-70
2021/03/04 07:52:12;;;;;;;33.75;12.70;;;;;;;2.47;100.00;101856.22;6322326;28;20050;-68
2021/03/04 07:55:14;;;;;;;42.88;12.90;;;;;;;2.44;100.00;101853.63;6307840;28;20409;-69
2021/03/04 07:58:15;;;;;;;35.03;12.15;;;;;;;2.43;100.00;101859.66;6317302;28;20425;-68
2021/03/04 08:01:17;;;;;;;39.20;12.77;;;;;;;2.27;99.83;101846.75;6322983;28;20075;-69
2021/03/04 08:04:21;;;;;;;33.45;11.90;;;;;;;2.36;100.00;101855.34;6323506;28;20048;-69
2021/03/04 08:07:26;;;;;;;35.20;11.68;;;;;;;2.52;99.59;101849.28;6323072;28;20040;-69
2021/03/04 08:10:27;;;;;;;27.92;10.60;;;;;;;2.61;97.29;101848.38;6308941;28;20051;-68
2021/03/04 08:13:31;;;;;;;32.38;12.00;;;;;;;2.39;98.90;101842.38;6297008;28;20521;-69
2021/03/04 08:16:33;;;;;;;25.33;10.55;;;;;;;2.39;99.30;101837.19;6298002;28;20040;-69
2021/03/04 08:19:35;;;;;;;35.90;12.38;;;;;;;2.34;100.00;101831.16;6297708;28;20497;-68
2021/03/04 08:22:43;;;;;;;28.00;10.50;;;;;;;2.35;100.00;101825.97;6299211;28;20412;-68
2021/03/04 08:25:46;;;;;;;34.97;11.85;;;;;;;2.25;100.00;101819.06;6322646;28;20048;-69
2021/03/04 08:28:47;;;;;;;33.90;10.55;;;;;;;2.32;100.00;101822.50;6298168;28;20508;-68
2021/03/04 08:31:49;;;;;;;29.80;10.48;;;;;;;2.42;100.00;101812.13;6297308;28;20048;-69
2021/03/04 08:34:49;;;;;;;34.15;11.10;;;;;;;2.36;99.45;101814.72;6297306;28;20052;-69
2021/03/04 08:37:58;;;;;;;28.83;10.27;;;;;;;2.42;100.00;101809.53;6309087;28;20040;-69
2021/03/04 08:41:00;;;;;;;32.15;11.10;;;;;;;2.49;100.00;101807.75;6321842;28;20423;-69
2021/03/04 08:44:12;;;;;;;28.67;10.75;;;;;;;2.50;98.29;101801.72;6322494;28;20048;-69
2021/03/04 08:47:15;;;;;;;28.83;10.48;;;;;;;2.47;99.94;101806.91;6322044;28;20068;-69
2021/03/04 08:50:16;;;;;;;28.42;11.40;;;;;;;2.34;100.00;101803.50;6322390;28;20591;-69
2021/03/04 08:53:19;;;;;;;28.38;10.55;;;;;;;2.45;100.00;101798.25;6320135;28;20048;-68
2021/03/04 08:56:20;;;;;;;30.35;11.15;;;;;;;2.37;100.00;101797.44;6297360;28;20048;-68
2021/03/04 08:59:22;;;;;;;29.73;11.27;;;;;;;2.49;100.00;101805.16;6296657;28;20405;-69
2021/03/04 09:02:24;;;;;;;26.17;9.95;;;;;;;2.57;99.39;101797.38;6316889;28;20040;-69
2021/03/04 09:05:25;;;;;;;28.45;11.32;;;;;;;2.62;99.08;101798.22;6321900;28;20056;-68
2021/03/04 09:08:32;;;;;;;28.98;10.80;;;;;;;2.71;98.58;101798.19;6321898;28;20401;-69
2021/03/04 09:11:36;;;;;;;32.08;11.73;;;;;;;2.45;99.98;101803.44;6321440;28;20124;-69
2021/03/04 09:14:36;;;;;;;35.10;12.85;;;;;;;2.62;99.12;101799.06;6321646;28;20055;-69
2021/03/04 09:17:40;;;;;;;33.70;12.18;;;;;;;2.42;99.74;101796.56;6321698;28;20044;-70
2021/03/04 09:20:41;;;;;;;33.78;13.23;;;;;;;2.47;100.00;101801.72;6319133;28;20055;-70
2021/03/04 09:23:42;;;;;;;39.90;14.85;;;;;;;2.45;100.00;101814.72;6312081;28;20048;-67
2021/03/04 09:26:43;;;;;;;36.65;12.98;;;;;;;2.78;99.85;101808.53;6321086;28;20412;-71
2021/03/04 09:29:44;;;;;;;40.05;14.20;;;;;;;2.57;100.00;101806.00;6321384;28;20055;-68
2021/03/04 09:32:46;;;;;;;36.38;13.25;;;;;;;2.60;100.00;101802.56;6321158;28;20059;-74
2021/03/04 09:35:57;;;;;;;34.22;13.60;;;;;;;2.66;100.00;101803.38;6320046;28;20047;-73
2021/03/04 09:38:58;;;;;;;37.05;13.05;;;;;;;2.75;99.89;101802.50;6315797;28;20044;-75
2021/03/04 09:41:59;;;;;;;38.90;13.35;;;;;;;2.78;99.47;101795.56;6296043;28;20097;-74
2021/03/04 09:45:03;;;;;;;36.67;13.63;;;;;;;2.85;99.12;101783.41;6299528;28;20044;-74
2021/03/04 09:48:06;;;;;;;37.20;13.98;;;;;;;2.77;98.34;101788.66;6321023;28;20040;-74
2021/03/04 09:51:07;;;;;;;32.38;13.02;;;;;;;2.66;98.93;101789.56;6321132;28;20060;-74
2021/03/04 09:54:09;;;;;;;33.17;12.07;;;;;;;2.78;98.29;101785.19;6299079;28;20049;-74
2021/03/04 09:57:11;;;;;;;32.13;12.07;;;;;;;2.69;98.99;101785.22;6298539;28;20784;-73
2021/03/04 10:00:23;;;;;;;28.90;11.55;;;;;;;2.66;99.27;101781.78;6313657;28;20432;-74
2021/03/04 10:03:32;;;;;;;26.65;11.25;;;;;;;2.86;99.33;101792.94;6295881;28;20056;-73
2021/03/04 10:06:34;;;;;;;25.15;10.45;;;;;;;2.83;97.42;101787.75;6295793;28;20051;-74
2021/03/04 10:09:35;;;;;;;24.77;10.38;;;;;;;2.81;97.43;101789.47;6295792;28;20056;-73
2021/03/04 10:12:46;;;;;;;28.95;10.98;;;;;;;2.83;97.83;101799.88;6295696;28;20049;-74
2021/03/04 10:15:46;;;;;;;25.88;11.38;;;;;;;2.91;97.25;101804.16;6295762;28;20059;-74
2021/03/04 10:18:49;;;;;;;28.85;11.70;;;;;;;2.94;96.58;101811.91;6294973;28;20052;-74
2021/03/04 10:21:50;;;;;;;28.25;12.23;;;;;;;2.71;98.46;101814.59;6295514;28;20048;-74
2021/03/04 10:24:51;;;;;;;35.20;13.73;;;;;;;2.60;98.90;101803.41;6294827;28;20122;-74
2021/03/04 10:27:52;;;;;;;31.23;12.15;;;;;;;2.59;98.78;101813.78;6295272;28;20052;-74
2021/03/04 10:30:53;;;;;;;26.95;11.23;;;;;;;2.92;98.77;101818.88;6295360;28;20048;-75
2021/03/04 10:33:54;;;;;;;26.65;10.88;;;;;;;2.81;98.43;101818.03;6294975;28;20144;-74
2021/03/04 10:36:55;;;;;;;27.55;10.73;;;;;;;2.75;98.34;101821.53;6297488;28;20102;-73
2021/03/04 10:39:56;;;;;;;25.58;10.70;;;;;;;2.83;98.55;101825.84;6314816;28;20393;-74
2021/03/04 10:42:57;;;;;;;24.38;9.80;;;;;;;3.01;97.06;101816.22;6324967;28;20052;-74
2021/03/04 10:45:58;;;;;;;20.17;9.00;;;;;;;3.09;95.54;101816.19;6325101;28;20048;-74
2021/03/04 10:49:00;;;;;;;15.15;8.40;;;;;;;3.11;95.28;101816.16;6325224;28;20077;-76
2021/03/04 10:52:00;;;;;;;17.08;8.65;;;;;;;3.02;93.85;101814.47;6323011;28;20059;-74
2021/03/04 10:55:02;;;;;;;16.58;7.88;;;;;;;3.10;94.53;101804.94;6325211;28;20056;-74
2021/03/04 10:58:02;;;;;;;16.52;7.88;;;;;;;2.97;94.14;101806.72;6324639;28;20512;-74
2021/03/04 11:01:03;;;;;;;23.58;9.02;;;;;;;3.11;94.00;101792.81;6315587;28;20052;-74
2021/03/04 11:04:05;;;;;;;16.45;7.57;;;;;;;3.04;94.36;101790.25;6299643;28;20638;-72
2021/03/04 11:07:06;;;;;;;20.67;8.73;;;;;;;3.05;93.59;101785.91;6299381;28;20493;-72
2021/03/04 11:10:09;;;;;;;13.23;6.80;;;;;;;3.31;91.74;101784.00;6299206;28;20060;-71
2021/03/04 11:13:10;;;;;;;16.33;7.00;;;;;;;3.42;91.81;101772.69;6299119;28;20094;-71
2021/03/04 11:16:11;;;;;;;14.52;7.00;;;;;;;3.42;90.82;101768.34;6299235;28;20501;-73
2021/03/04 11:19:13;;;;;;;14.13;7.05;;;;;;;3.51;90.68;101770.88;6299125;28;20102;-72
2021/03/04 11:22:13;;;;;;;16.08;6.63;;;;;;;3.80;88.27;101772.38;6299937;28;20410;-71
2021/03/04 11:25:14;;;;;;;16.23;6.40;;;;;;;3.67;89.06;101755.16;6299138;28;20088;-72
2021/03/04 11:28:15;;;;;;;13.45;6.55;;;;;;;3.81;88.17;101761.09;6299121;28;20087;-71
2021/03/04 11:31:16;;;;;;;11.98;6.68;;;;;;;3.72;88.74;101751.63;6298666;28;20048;-72
2021/03/04 11:34:18;;;;;;;13.32;6.35;;;;;;;3.83;88.70;101756.75;6299089;28;20082;-73
2021/03/04 11:37:19;;;;;;;16.52;7.30;;;;;;;3.82;88.26;101755.03;6298802;28;20044;-72
2021/03/04 11:40:20;;;;;;;15.38;6.90;;;;;;;3.91;88.51;101756.69;6316641;28;20054;-73
2021/03/04 11:43:21;;;;;;;14.80;6.97;;;;;;;4.00;88.53;101747.06;6323644;28;20058;-72
2021/03/04 11:46:21;;;;;;;13.32;6.65;;;;;;;3.97;88.30;101749.66;6308574;28;20051;-73
2021/03/04 11:49:23;;;;;;;16.10;7.55;;;;;;;3.97;89.21;101746.22;6297210;28;20079;-72
2021/03/04 11:52:24;;;;;;;16.55;6.63;;;;;;;4.09;88.29;101743.50;6299386;28;20425;-72
2021/03/04 11:55:25;;;;;;;18.38;7.50;;;;;;;4.04;87.89;101740.06;6298530;28;20067;-73
2021/03/04 11:58:26;;;;;;;15.43;7.25;;;;;;;3.97;88.91;101730.63;6298272;28;20045;-72
2021/03/04 12:01:27;;;;;;;20.50;8.15;;;;;;;3.75;89.00;101724.75;6310564;28;20514;-73
2021/03/04 12:04:29;;;;;;;14.52;7.47;;;;;;;3.78;90.18;101727.34;6323216;28;20055;-72
2021/03/04 12:07:30;;;;;;;12.77;7.68;;;;;;;3.99;88.66;101721.91;6305176;28;20086;-69
2021/03/04 12:10:31;;;;;;;15.57;8.45;;;;;;;4.03;87.91;101714.94;6297577;28;20497;-68
2021/03/04 12:13:34;;;;;;;16.02;8.27;;;;;;;4.12;88.67;101712.22;6296760;28;20053;-69
2021/03/04 12:16:35;;;;;;;23.58;9.55;;;;;;;3.99;89.03;101706.28;6317072;28;20146;-70
2021/03/04 12:19:36;;;;;;;17.70;9.55;;;;;;;3.99;89.22;101702.84;6322561;28;20052;-69
2021/03/04 12:22:37;;;;;;;22.27;9.25;;;;;;;3.93;90.10;101708.97;6299362;28;20044;-69
2021/03/04 12:25:38;;;;;;;19.63;9.60;;;;;;;4.00;89.47;101700.25;6297214;28;20060;-69
2021/03/04 12:28:39;;;;;;;18.63;9.40;;;;;;;3.74;90.10;101694.44;6297310;28;20090;-69
2021/03/04 12:31:40;;;;;;;21.73;10.20;;;;;;;4.02;89.25;101695.88;6295455;28;20076;-69
2021/03/04 12:34:42;;;;;;;18.98;9.80;;;;;;;3.97;89.17;101689.88;6304213;28;20055;-71
2021/03/04 12:37:43;;;;;;;17.52;9.02;;;;;;;4.05;89.11;101685.44;6312337;23;20767;-73
2021/03/04 12:40:44;;;;;;;16.48;9.40;;;;;;;3.91;88.28;101682.13;6269636;28;20114;-74
2021/03/04 12:43:45;;;;;;;19.88;9.70;;;;;;;3.89;88.16;101681.28;6290131;28;20048;-74
2021/03/04 12:46:45;;;;;;;20.98;9.95;;;;;;;3.83;88.29;101688.28;6297179;28;20048;-74
2021/03/04 12:49:47;;;;;;;28.50;10.85;;;;;;;3.85;89.26;101678.72;6295420;28;20048;-75
2021/03/04 12:52:48;;;;;;;23.17;11.63;;;;;;;4.04;88.71;101670.72;6296799;28;20052;-74
2021/03/04 12:55:51;;;;;;;25.48;11.95;;;;;;;3.85;88.84;101682.19;6297096;28;20052;-74
2021/03/04 12:58:52;;;;;;;22.48;11.02;;;;;;;3.81;89.82;101675.28;6286565;28;20045;-75
2021/03/04 13:01:53;;;;;;;22.30;11.68;;;;;;;4.09;88.96;101675.88;6279619;28;20455;-73
2021/03/04 13:04:55;;;;;;;21.63;11.52;;;;;;;3.98;89.67;101670.78;6283182;28;20132;-72
2021/03/04 13:07:56;;;;;;;23.35;11.80;;;;;;;4.15;88.64;101668.00;6281699;28;20512;-74
2021/03/04 13:10:57;;;;;;;20.80;10.90;;;;;;;4.13;88.27;101671.47;6283300;28;20048;-73
2021/03/04 13:13:58;;;;;;;24.60;11.70;;;;;;;4.25;88.19;101668.72;6281684;28;20063;-73
2021/03/04 13:16:59;;;;;;;27.23;12.27;;;;;;;4.05;89.63;101659.44;6283035;28;20048;-75
2021/03/04 13:20:01;;;;;;;28.08;11.70;;;;;;;4.19;88.49;101661.88;6282936;28;20105;-73
2021/03/04 13:23:02;;;;;;;24.58;12.68;;;;;;;4.00;89.86;101668.19;6269588;28;20041;-73
2021/03/04 13:26:03;;;;;;;27.40;12.55;;;;;;;4.10;88.23;101661.13;6270360;28;20494;-74
2021/03/04 13:29:04;;;;;;;25.30;11.38;;;;;;;4.13;89.02;101663.66;6269883;28;20037;-73
2021/03/04 13:32:06;;;;;;;22.65;11.32;;;;;;;4.14;89.36;101655.88;6269612;28;20057;-73
2021/03/04 13:35:11;;;;;;;27.40;12.13;;;;;;;4.23;89.19;101657.50;6269896;28;20049;-73
2021/03/04 13:38:12;;;;;;;17.10;9.95;;;;;;;4.32;89.17;101654.78;6269751;28;20052;-72
2021/03/04 13:41:12;;;;;;;20.50;9.88;;;;;;;4.04;89.66;101652.53;6269570;28;20051;-73
2021/03/04 13:44:13;;;;;;;22.00;9.50;;;;;;;4.19;89.08;101653.22;6269610;28;20124;-73
2021/03/04 13:47:14;;;;;;;21.00;9.63;;;;;;;4.17;89.23;101650.59;6269665;28;20037;-72
2021/03/04 13:50:16;;;;;;;21.00;9.55;;;;;;;4.02;90.40;101654.25;6269034;28;20052;-74
2021/03/04 13:53:17;;;;;;;21.10;8.57;;;;;;;4.11;89.47;101665.44;6270703;28;20421;-73
2021/03/04 13:56:18;;;;;;;16.98;7.78;;;;;;;4.23;88.23;101657.50;6271041;28;20085;-72
2021/03/04 13:59:19;;;;;;;12.70;6.90;;;;;;;4.27;88.33;101659.16;6271259;28;20056;-73